sensor_id;sensor_type;location;lat;lon;timestamp;temperature;humidity
23267;DHT22;11802;53.160;8.214;2023-03-22T00:00:53;9.20;99.90
23267;DHT22;11802;53.160;8.214;2023-03-22T00:03:19;9.20;99.90
23267;DHT22;11802;53.160;8.214;2023-03-22T00:05:44;9.20;99.90
23267;DHT22;11802;53.160;8.214;2023-03-22T00:08:10;9.10;99.90
23267;DHT22;11802;53.160;8.214;2023-03-22T00:10:39;9.10;99.90
23267;DHT22;11802;53.160;8.214;2023-03-22T00:13:06;9.10;99.90
23267;DHT22;11802;53.160;8.214;2023-03-22T00:15:32;9.10;99.90
23267;DHT22;11802;53.160;8.214;2023-03-22T00:17:58;9.00;99.90
23267;DHT22;11802;53.160;8.214;2023-03-22T00:20:25;9.10;99.90
23267;DHT22;11802;53.160;8.214;2023-03-22T00:22:50;9.10;99.90
23267;DHT22;11802;53.160;8.214;2023-03-22T00:25:17;9.10;99.90
23267;DHT22;11802;53.160;8.214;2023-03-22T00:27:43;9.20;99.90
23267;DHT22;11802;53.160;8.214;2023-03-22T00:30:10;9.20;99.90
23267;DHT22;11802;53.160;8.214;2023-03-22T00:32:37;9.20;99.90
23267;DHT22;11802;53.160;8.214;2023-03-22T00:35:04;9.20;99.90
23267;DHT22;11802;53.160;8.214;2023-03-22T00:37:30;9.20;99.90
23267;DHT22;11802;53.160;8.214;2023-03-22T00:40:02;9.30;99.90
23267;DHT22;11802;53.160;8.214;2023-03-22T00:42:29;9.30;99.90
23267;DHT22;11802;53.160;8.214;2023-03-22T00:44:54;9.30;99.90
23267;DHT22;11802;53.160;8.214;2023-03-22T00:47:20;9.30;99.90
23267;DHT22;11802;53.160;8.214;2023-03-22T00:49:46;9.30;99.90
23267;DHT22;11802;53.160;8.214;2023-03-22T00:52:11;9.30;99.90
23267;DHT22;11802;53.160;8.214;2023-03-22T00:54:37;9.40;99.90
23267;DHT22;11802;53.160;8.214;2023-03-22T00:57:02;9.40;99.90
23267;DHT22;11802;53.160;8.214;2023-03-22T00:59:28;9.40;99.90
23267;DHT22;11802;53.160;8.214;2023-03-22T01:01:53;9.50;99.90
23267;DHT22;11802;53.160;8.214;2023-03-22T01:04:20;9.50;99.90
23267;DHT22;11802;53.160;8.214;2023-03-22T01:06:51;9.40;99.90
23267;DHT22;11802;53.160;8.214;2023-03-22T01:09:24;9.50;99.90
23267;DHT22;11802;53.160;8.214;2023-03-22T01:11:52;9.50;99.90
23267;DHT22;11802;53.160;8.214;2023-03-22T01:14:18;9.50;99.90
23267;DHT22;11802;53.160;8.214;2023-03-22T01:16:43;9.50;99.90
23267;DHT22;11802;53.160;8.214;2023-03-22T01:19:09;9.50;99.90
23267;DHT22;11802;53.160;8.214;2023-03-22T01:21:35;9.60;99.90
23267;DHT22;11802;53.160;8.214;2023-03-22T01:24:00;9.60;99.90
23267;DHT22;11802;53.160;8.214;2023-03-22T01:26:26;9.70;99.90
23267;DHT22;11802;53.160;8.214;2023-03-22T01:28:51;9.70;99.90
23267;DHT22;11802;53.160;8.214;2023-03-22T01:31:17;9.70;99.90
23267;DHT22;11802;53.160;8.214;2023-03-22T01:33:42;9.70;99.90
23267;DHT22;11802;53.160;8.214;2023-03-22T01:36:08;9.70;99.90
23267;DHT22;11802;53.160;8.214;2023-03-22T01:38:34;9.70;99.90
23267;DHT22;11802;53.160;8.214;2023-03-22T01:40:59;9.80;99.90
23267;DHT22;11802;53.160;8.214;2023-03-22T01:43:25;9.70;99.90
23267;DHT22;11802;53.160;8.214;2023-03-22T01:45:52;9.80;99.90
23267;DHT22;11802;53.160;8.214;2023-03-22T01:48:27;9.80;99.90
23267;DHT22;11802;53.160;8.214;2023-03-22T01:51:13;9.80;99.90
23267;DHT22;11802;53.160;8.214;2023-03-22T01:53:51;9.80;99.90
23267;DHT22;11802;53.160;8.214;2023-03-22T01:56:20;9.70;99.90
23267;DHT22;11802;53.160;8.214;2023-03-22T01:58:47;9.70;99.90
23267;DHT22;11802;53.160;8.214;2023-03-22T02:01:14;9.70;99.90
23267;DHT22;11802;53.160;8.214;2023-03-22T02:03:56;9.70;99.90
23267;DHT22;11802;53.160;8.214;2023-03-22T02:06:23;9.70;99.90
23267;DHT22;11802;53.160;8.214;2023-03-22T02:08:49;9.70;99.90
23267;DHT22;11802;53.160;8.214;2023-03-22T02:11:24;9.70;99.90
23267;DHT22;11802;53.160;8.214;2023-03-22T02:17:16;9.70;99.90
23267;DHT22;11802;53.160;8.214;2023-03-22T02:22:59;9.70;99.90
23267;DHT22;11802;53.160;8.214;2023-03-22T02:31:06;9.80;99.90
23267;DHT22;11802;53.160;8.214;2023-03-22T02:42:32;9.90;99.90
23267;DHT22;11802;53.160;8.214;2023-03-22T02:47:42;9.90;99.90
23267;DHT22;11802;53.160;8.214;2023-03-22T02:55:36;9.90;99.90
23267;DHT22;11802;53.160;8.214;2023-03-22T02:58:16;9.90;99.90
23267;DHT22;11802;53.160;8.214;2023-03-22T03:00:44;9.90;99.90
23267;DHT22;11802;53.160;8.214;2023-03-22T03:03:12;9.90;99.90
23267;DHT22;11802;53.160;8.214;2023-03-22T03:05:45;9.90;99.90
23267;DHT22;11802;53.160;8.214;2023-03-22T03:08:12;9.90;99.90
23267;DHT22;11802;53.160;8.214;2023-03-22T03:10:40;9.90;99.90
23267;DHT22;11802;53.160;8.214;2023-03-22T03:13:13;9.90;99.90
23267;DHT22;11802;53.160;8.214;2023-03-22T03:15:41;9.90;99.90
23267;DHT22;11802;53.160;8.214;2023-03-22T03:18:59;9.90;99.90
23267;DHT22;11802;53.160;8.214;2023-03-22T03:24:32;9.90;99.90
23267;DHT22;11802;53.160;8.214;2023-03-22T03:27:09;9.90;99.90
23267;DHT22;11802;53.160;8.214;2023-03-22T03:29:41;9.90;99.90
23267;DHT22;11802;53.160;8.214;2023-03-22T03:32:14;9.90;99.90
23267;DHT22;11802;53.160;8.214;2023-03-22T03:34:52;9.90;99.90
23267;DHT22;11802;53.160;8.214;2023-03-22T03:37:26;9.90;99.90
23267;DHT22;11802;53.160;8.214;2023-03-22T03:40:01;9.90;99.90
23267;DHT22;11802;53.160;8.214;2023-03-22T03:42:30;10.00;99.90
23267;DHT22;11802;53.160;8.214;2023-03-22T03:44:56;9.90;99.90
23267;DHT22;11802;53.160;8.214;2023-03-22T03:47:23;9.90;99.90
23267;DHT22;11802;53.160;8.214;2023-03-22T03:49:49;9.90;99.90
23267;DHT22;11802;53.160;8.214;2023-03-22T03:52:15;9.90;99.90
23267;DHT22;11802;53.160;8.214;2023-03-22T03:54:41;9.90;99.90
23267;DHT22;11802;53.160;8.214;2023-03-22T03:57:07;9.90;99.90
23267;DHT22;11802;53.160;8.214;2023-03-22T03:59:32;9.90;99.90
23267;DHT22;11802;53.160;8.214;2023-03-22T04:01:58;9.90;99.90
23267;DHT22;11802;53.160;8.214;2023-03-22T04:04:27;9.90;99.90
23267;DHT22;11802;53.160;8.214;2023-03-22T04:06:55;9.90;99.90
23267;DHT22;11802;53.160;8.214;2023-03-22T04:09:23;9.90;99.90
23267;DHT22;11802;53.160;8.214;2023-03-22T04:11:49;9.90;99.90
23267;DHT22;11802;53.160;8.214;2023-03-22T04:14:15;9.90;99.90
23267;DHT22;11802;53.160;8.214;2023-03-22T04:16:41;9.90;99.90
23267;DHT22;11802;53.160;8.214;2023-03-22T04:19:06;9.90;99.90
23267;DHT22;11802;53.160;8.214;2023-03-22T04:21:32;9.90;99.90
23267;DHT22;11802;53.160;8.214;2023-03-22T04:23:57;9.80;99.90
23267;DHT22;11802;53.160;8.214;2023-03-22T04:26:23;9.90;99.90
23267;DHT22;11802;53.160;8.214;2023-03-22T04:28:48;9.80;99.90
23267;DHT22;11802;53.160;8.214;2023-03-22T04:31:14;9.80;99.90
23267;DHT22;11802;53.160;8.214;2023-03-22T04:33:39;9.80;99.90
23267;DHT22;11802;53.160;8.214;2023-03-22T04:36:06;9.80;99.90
23267;DHT22;11802;53.160;8.214;2023-03-22T04:38:35;9.80;99.90
23267;DHT22;11802;53.160;8.214;2023-03-22T04:41:01;9.80;99.90
23267;DHT22;11802;53.160;8.214;2023-03-22T04:43:27;9.80;99.90
23267;DHT22;11802;53.160;8.214;2023-03-22T04:45:52;9.80;99.90
23267;DHT22;11802;53.160;8.214;2023-03-22T04:48:19;9.80;99.90
23267;DHT22;11802;53.160;8.214;2023-03-22T04:50:46;9.80;99.90
23267;DHT22;11802;53.160;8.214;2023-03-22T04:53:11;9.80;99.90
23267;DHT22;11802;53.160;8.214;2023-03-22T04:55:37;9.80;99.90
23267;DHT22;11802;53.160;8.214;2023-03-22T04:58:03;9.80;99.90
23267;DHT22;11802;53.160;8.214;2023-03-22T05:00:28;9.80;99.90
23267;DHT22;11802;53.160;8.214;2023-03-22T05:02:54;9.80;99.90
23267;DHT22;11802;53.160;8.214;2023-03-22T05:05:20;9.80;99.90
23267;DHT22;11802;53.160;8.214;2023-03-22T05:07:46;9.80;99.90
23267;DHT22;11802;53.160;8.214;2023-03-22T05:10:11;9.70;99.90
23267;DHT22;11802;53.160;8.214;2023-03-22T05:12:37;9.70;99.90
23267;DHT22;11802;53.160;8.214;2023-03-22T05:15:03;9.70;99.90
23267;DHT22;11802;53.160;8.214;2023-03-22T05:17:30;9.70;99.90
23267;DHT22;11802;53.160;8.214;2023-03-22T05:19:55;9.70;99.90
23267;DHT22;11802;53.160;8.214;2023-03-22T05:22:21;9.80;99.90
23267;DHT22;11802;53.160;8.214;2023-03-22T05:24:46;9.80;99.90
23267;DHT22;11802;53.160;8.214;2023-03-22T05:27:12;9.70;99.90
23267;DHT22;11802;53.160;8.214;2023-03-22T05:29:38;9.80;99.90
23267;DHT22;11802;53.160;8.214;2023-03-22T05:32:09;9.80;99.90
23267;DHT22;11802;53.160;8.214;2023-03-22T05:34:35;9.80;99.90
23267;DHT22;11802;53.160;8.214;2023-03-22T05:37:02;9.80;99.90
23267;DHT22;11802;53.160;8.214;2023-03-22T05:39:28;9.90;99.90
23267;DHT22;11802;53.160;8.214;2023-03-22T05:41:53;9.90;99.90
23267;DHT22;11802;53.160;8.214;2023-03-22T05:44:19;9.90;99.90
23267;DHT22;11802;53.160;8.214;2023-03-22T05:46:44;10.00;99.90
23267;DHT22;11802;53.160;8.214;2023-03-22T05:49:10;10.00;99.90
23267;DHT22;11802;53.160;8.214;2023-03-22T05:51:35;10.10;99.90
23267;DHT22;11802;53.160;8.214;2023-03-22T05:54:09;10.10;99.90
23267;DHT22;11802;53.160;8.214;2023-03-22T05:56:34;10.20;99.90
23267;DHT22;11802;53.160;8.214;2023-03-22T05:59:01;10.20;99.90
23267;DHT22;11802;53.160;8.214;2023-03-22T06:01:27;10.20;99.90
23267;DHT22;11802;53.160;8.214;2023-03-22T06:03:52;10.20;99.90
23267;DHT22;11802;53.160;8.214;2023-03-22T06:06:18;10.20;99.90
23267;DHT22;11802;53.160;8.214;2023-03-22T06:08:44;10.30;99.90
23267;DHT22;11802;53.160;8.214;2023-03-22T06:11:09;10.30;99.90
23267;DHT22;11802;53.160;8.214;2023-03-22T06:13:35;10.40;99.90
23267;DHT22;11802;53.160;8.214;2023-03-22T06:16:02;10.30;99.90
23267;DHT22;11802;53.160;8.214;2023-03-22T06:18:28;10.40;99.90
23267;DHT22;11802;53.160;8.214;2023-03-22T06:20:54;10.40;99.90
23267;DHT22;11802;53.160;8.214;2023-03-22T06:23:19;10.50;99.90
23267;DHT22;11802;53.160;8.214;2023-03-22T06:25:45;10.40;99.90
23267;DHT22;11802;53.160;8.214;2023-03-22T06:28:11;10.50;99.90
23267;DHT22;11802;53.160;8.214;2023-03-22T06:30:36;10.50;99.90
23267;DHT22;11802;53.160;8.214;2023-03-22T06:33:02;10.60;99.90
23267;DHT22;11802;53.160;8.214;2023-03-22T06:35:30;10.60;99.90
23267;DHT22;11802;53.160;8.214;2023-03-22T06:37:57;10.60;99.90
23267;DHT22;11802;53.160;8.214;2023-03-22T06:40:22;10.70;99.90
23267;DHT22;11802;53.160;8.214;2023-03-22T06:42:48;10.70;99.90
23267;DHT22;11802;53.160;8.214;2023-03-22T06:45:14;10.80;99.90
23267;DHT22;11802;53.160;8.214;2023-03-22T06:47:41;10.80;99.90
23267;DHT22;11802;53.160;8.214;2023-03-22T06:50:07;10.80;99.90
23267;DHT22;11802;53.160;8.214;2023-03-22T06:52:33;10.80;99.90
23267;DHT22;11802;53.160;8.214;2023-03-22T06:54:58;10.80;99.90
23267;DHT22;11802;53.160;8.214;2023-03-22T06:57:24;10.90;99.90
23267;DHT22;11802;53.160;8.214;2023-03-22T06:59:50;10.90;99.90
23267;DHT22;11802;53.160;8.214;2023-03-22T07:02:15;10.90;99.90
23267;DHT22;11802;53.160;8.214;2023-03-22T07:04:41;11.00;99.90
23267;DHT22;11802;53.160;8.214;2023-03-22T07:07:06;11.00;99.90
23267;DHT22;11802;53.160;8.214;2023-03-22T07:09:32;11.00;99.90
23267;DHT22;11802;53.160;8.214;2023-03-22T07:11:58;11.00;99.90
23267;DHT22;11802;53.160;8.214;2023-03-22T07:14:23;11.00;99.90
23267;DHT22;11802;53.160;8.214;2023-03-22T07:16:49;11.00;99.90
23267;DHT22;11802;53.160;8.214;2023-03-22T07:19:14;11.10;99.90
23267;DHT22;11802;53.160;8.214;2023-03-22T07:21:41;11.10;99.90
23267;DHT22;11802;53.160;8.214;2023-03-22T07:24:07;11.10;99.90
23267;DHT22;11802;53.160;8.214;2023-03-22T07:26:33;11.10;99.90
23267;DHT22;11802;53.160;8.214;2023-03-22T07:28:59;11.20;99.90
23267;DHT22;11802;53.160;8.214;2023-03-22T07:31:24;11.30;99.90
23267;DHT22;11802;53.160;8.214;2023-03-22T07:33:50;11.30;99.90
23267;DHT22;11802;53.160;8.214;2023-03-22T07:36:16;11.50;99.90
23267;DHT22;11802;53.160;8.214;2023-03-22T07:38:48;11.60;99.90
23267;DHT22;11802;53.160;8.214;2023-03-22T07:41:15;11.90;99.90
23267;DHT22;11802;53.160;8.214;2023-03-22T07:43:41;12.30;99.90
23267;DHT22;11802;53.160;8.214;2023-03-22T07:46:07;12.60;99.90
23267;DHT22;11802;53.160;8.214;2023-03-22T07:48:33;12.70;99.90
23267;DHT22;11802;53.160;8.214;2023-03-22T07:50:59;12.80;99.90
23267;DHT22;11802;53.160;8.214;2023-03-22T07:53:24;12.80;99.90
23267;DHT22;11802;53.160;8.214;2023-03-22T07:55:50;12.80;99.90
23267;DHT22;11802;53.160;8.214;2023-03-22T07:58:16;12.60;99.90
23267;DHT22;11802;53.160;8.214;2023-03-22T08:00:41;12.60;99.90
23267;DHT22;11802;53.160;8.214;2023-03-22T08:03:10;12.70;99.90
23267;DHT22;11802;53.160;8.214;2023-03-22T08:05:39;12.80;99.90
23267;DHT22;11802;53.160;8.214;2023-03-22T08:08:05;12.80;99.90
23267;DHT22;11802;53.160;8.214;2023-03-22T08:10:31;12.80;99.90
23267;DHT22;11802;53.160;8.214;2023-03-22T08:12:57;12.80;99.90
23267;DHT22;11802;53.160;8.214;2023-03-22T08:15:22;12.80;99.90
23267;DHT22;11802;53.160;8.214;2023-03-22T08:17:48;12.90;99.90
23267;DHT22;11802;53.160;8.214;2023-03-22T08:20:14;13.10;99.90
23267;DHT22;11802;53.160;8.214;2023-03-22T08:22:42;13.20;99.90
23267;DHT22;11802;53.160;8.214;2023-03-22T08:25:08;13.20;99.90
23267;DHT22;11802;53.160;8.214;2023-03-22T08:27:34;13.40;99.90
23267;DHT22;11802;53.160;8.214;2023-03-22T08:30:00;13.30;99.90
23267;DHT22;11802;53.160;8.214;2023-03-22T08:32:26;13.50;99.90
23267;DHT22;11802;53.160;8.214;2023-03-22T08:34:52;13.40;99.90
23267;DHT22;11802;53.160;8.214;2023-03-22T08:37:18;13.40;99.90
23267;DHT22;11802;53.160;8.214;2023-03-22T08:39:47;13.60;99.90
23267;DHT22;11802;53.160;8.214;2023-03-22T08:42:12;13.60;99.90
23267;DHT22;11802;53.160;8.214;2023-03-22T08:44:38;13.60;99.90
23267;DHT22;11802;53.160;8.214;2023-03-22T08:47:04;13.40;99.90
23267;DHT22;11802;53.160;8.214;2023-03-22T08:49:29;13.30;99.90
23267;DHT22;11802;53.160;8.214;2023-03-22T08:51:55;13.20;99.90
23267;DHT22;11802;53.160;8.214;2023-03-22T08:54:22;13.20;99.90
23267;DHT22;11802;53.160;8.214;2023-03-22T08:56:47;13.20;99.90
23267;DHT22;11802;53.160;8.214;2023-03-22T08:59:14;13.10;99.90
23267;DHT22;11802;53.160;8.214;2023-03-22T09:01:40;13.20;99.90
23267;DHT22;11802;53.160;8.214;2023-03-22T09:04:06;13.20;99.90
23267;DHT22;11802;53.160;8.214;2023-03-22T09:06:31;13.20;99.90
23267;DHT22;11802;53.160;8.214;2023-03-22T09:08:58;13.40;99.90
23267;DHT22;11802;53.160;8.214;2023-03-22T09:11:24;13.70;99.90
23267;DHT22;11802;53.160;8.214;2023-03-22T09:13:50;13.80;99.90
23267;DHT22;11802;53.160;8.214;2023-03-22T09:16:16;13.80;99.90
23267;DHT22;11802;53.160;8.214;2023-03-22T09:18:42;13.90;99.90
23267;DHT22;11802;53.160;8.214;2023-03-22T09:21:09;13.80;99.90
23267;DHT22;11802;53.160;8.214;2023-03-22T09:23:35;14.00;99.90
23267;DHT22;11802;53.160;8.214;2023-03-22T09:26:07;14.10;99.90
23267;DHT22;11802;53.160;8.214;2023-03-22T09:28:33;14.50;99.90
23267;DHT22;11802;53.160;8.214;2023-03-22T09:31:02;14.80;1.00
23267;DHT22;11802;53.160;8.214;2023-03-22T09:33:27;14.50;1.00
23267;DHT22;11802;53.160;8.214;2023-03-22T09:35:54;14.20;1.00
23267;DHT22;11802;53.160;8.214;2023-03-22T09:38:20;14.00;1.00
23267;DHT22;11802;53.160;8.214;2023-03-22T09:40:52;13.80;1.00
23267;DHT22;11802;53.160;8.214;2023-03-22T09:43:28;13.70;1.00
23267;DHT22;11802;53.160;8.214;2023-03-22T09:45:55;13.70;1.00
23267;DHT22;11802;53.160;8.214;2023-03-22T09:48:29;13.80;1.00
23267;DHT22;11802;53.160;8.214;2023-03-22T09:50:55;13.90;1.00
23267;DHT22;11802;53.160;8.214;2023-03-22T09:53:23;14.10;1.00
23267;DHT22;11802;53.160;8.214;2023-03-22T09:58:37;14.20;1.00
23267;DHT22;11802;53.160;8.214;2023-03-22T10:01:33;14.40;1.00
23267;DHT22;11802;53.160;8.214;2023-03-22T10:06:48;14.70;99.90
23267;DHT22;11802;53.160;8.214;2023-03-22T10:09:25;15.00;1.00
23267;DHT22;11802;53.160;8.214;2023-03-22T10:12:03;15.00;1.00
23267;DHT22;11802;53.160;8.214;2023-03-22T10:17:08;14.40;1.00
23267;DHT22;11802;53.160;8.214;2023-03-22T10:19:51;14.30;1.00
23267;DHT22;11802;53.160;8.214;2023-03-22T10:22:21;14.40;99.90
23267;DHT22;11802;53.160;8.214;2023-03-22T10:24:50;14.60;1.00
23267;DHT22;11802;53.160;8.214;2023-03-22T10:27:36;14.70;99.90
23267;DHT22;11802;53.160;8.214;2023-03-22T10:30:23;14.80;1.00
23267;DHT22;11802;53.160;8.214;2023-03-22T10:33:03;15.00;99.90
23267;DHT22;11802;53.160;8.214;2023-03-22T10:35:30;15.00;99.90
23267;DHT22;11802;53.160;8.214;2023-03-22T10:37:58;15.00;99.90
23267;DHT22;11802;53.160;8.214;2023-03-22T10:40:30;14.90;1.00
23267;DHT22;11802;53.160;8.214;2023-03-22T10:45:38;14.90;99.90
23267;DHT22;11802;53.160;8.214;2023-03-22T10:48:24;15.20;99.90
23267;DHT22;11802;53.160;8.214;2023-03-22T10:50:50;15.50;99.90
23267;DHT22;11802;53.160;8.214;2023-03-22T10:53:38;15.80;99.90
23267;DHT22;11802;53.160;8.214;2023-03-22T10:56:05;16.10;1.00
23267;DHT22;11802;53.160;8.214;2023-03-22T10:58:34;16.30;1.00
23267;DHT22;11802;53.160;8.214;2023-03-22T11:01:10;16.60;1.00
23267;DHT22;11802;53.160;8.214;2023-03-22T11:03:39;16.40;1.00
23267;DHT22;11802;53.160;8.214;2023-03-22T11:06:24;16.50;1.00
23267;DHT22;11802;53.160;8.214;2023-03-22T11:08:57;16.20;1.00
23267;DHT22;11802;53.160;8.214;2023-03-22T11:11:34;15.80;99.90
23267;DHT22;11802;53.160;8.214;2023-03-22T11:16:30;16.10;1.00
23267;DHT22;11802;53.160;8.214;2023-03-22T11:18:58;15.90;99.90
23267;DHT22;11802;53.160;8.214;2023-03-22T11:21:29;15.50;1.00
23267;DHT22;11802;53.160;8.214;2023-03-22T11:24:04;15.50;85.70
23267;DHT22;11802;53.160;8.214;2023-03-22T11:26:34;15.50;99.90
23267;DHT22;11802;53.160;8.214;2023-03-22T11:29:13;15.00;1.00
23267;DHT22;11802;53.160;8.214;2023-03-22T11:32:20;14.90;1.00
23267;DHT22;11802;53.160;8.214;2023-03-22T11:34:46;14.70;19.00
23267;DHT22;11802;53.160;8.214;2023-03-22T11:37:15;14.50;99.90
23267;DHT22;11802;53.160;8.214;2023-03-22T11:39:47;14.40;1.00
23267;DHT22;11802;53.160;8.214;2023-03-22T11:42:18;14.20;99.90
23267;DHT22;11802;53.160;8.214;2023-03-22T11:44:44;14.00;1.00
23267;DHT22;11802;53.160;8.214;2023-03-22T11:47:12;13.90;1.00
23267;DHT22;11802;53.160;8.214;2023-03-22T11:49:44;13.80;1.00
23267;DHT22;11802;53.160;8.214;2023-03-22T11:52:25;13.70;1.00
23267;DHT22;11802;53.160;8.214;2023-03-22T11:54:52;13.40;1.00
23267;DHT22;11802;53.160;8.214;2023-03-22T11:57:25;13.30;27.60
23267;DHT22;11802;53.160;8.214;2023-03-22T12:02:41;13.20;86.90
23267;DHT22;11802;53.160;8.214;2023-03-22T12:05:19;13.20;84.00
23267;DHT22;11802;53.160;8.214;2023-03-22T12:07:48;13.20;99.90
23267;DHT22;11802;53.160;8.214;2023-03-22T12:10:28;13.20;99.90
23267;DHT22;11802;53.160;8.214;2023-03-22T12:13:03;13.20;99.90
23267;DHT22;11802;53.160;8.214;2023-03-22T12:15:42;13.20;99.90
23267;DHT22;11802;53.160;8.214;2023-03-22T12:18:26;13.30;99.90
23267;DHT22;11802;53.160;8.214;2023-03-22T12:20:56;13.40;99.90
23267;DHT22;11802;53.160;8.214;2023-03-22T12:23:24;13.40;99.90
23267;DHT22;11802;53.160;8.214;2023-03-22T12:29:00;13.40;93.30
23267;DHT22;11802;53.160;8.214;2023-03-22T12:31:36;13.20;99.90
23267;DHT22;11802;53.160;8.214;2023-03-22T12:34:06;13.10;99.90
23267;DHT22;11802;53.160;8.214;2023-03-22T12:36:39;13.10;99.90
23267;DHT22;11802;53.160;8.214;2023-03-22T12:39:12;13.20;99.90
23267;DHT22;11802;53.160;8.214;2023-03-22T12:41:40;13.30;99.90
23267;DHT22;11802;53.160;8.214;2023-03-22T12:44:26;13.30;99.90
23267;DHT22;11802;53.160;8.214;2023-03-22T12:47:06;13.40;99.90
23267;DHT22;11802;53.160;8.214;2023-03-22T12:49:42;13.40;91.90
23267;DHT22;11802;53.160;8.214;2023-03-22T12:52:29;13.60;99.20
23267;DHT22;11802;53.160;8.214;2023-03-22T12:54:57;13.60;93.40
23267;DHT22;11802;53.160;8.214;2023-03-22T12:57:23;13.70;89.00
23267;DHT22;11802;53.160;8.214;2023-03-22T12:59:52;13.90;58.80
23267;DHT22;11802;53.160;8.214;2023-03-22T13:02:30;13.90;26.10
23267;DHT22;11802;53.160;8.214;2023-03-22T13:05:02;14.00;25.20
23267;DHT22;11802;53.160;8.214;2023-03-22T13:15:38;13.60;8.80
23267;DHT22;11802;53.160;8.214;2023-03-22T13:18:27;13.40;41.40
23267;DHT22;11802;53.160;8.214;2023-03-22T13:21:14;13.30;89.40
23267;DHT22;11802;53.160;8.214;2023-03-22T13:24:18;13.10;76.10
23267;DHT22;11802;53.160;8.214;2023-03-22T13:26:52;12.90;62.00
23267;DHT22;11802;53.160;8.214;2023-03-22T13:29:21;12.90;95.90
23267;DHT22;11802;53.160;8.214;2023-03-22T13:31:55;12.80;87.30
23267;DHT22;11802;53.160;8.214;2023-03-22T13:34:54;12.80;99.90
23267;DHT22;11802;53.160;8.214;2023-03-22T13:46:02;12.60;99.90
23267;DHT22;11802;53.160;8.214;2023-03-22T13:51:14;12.60;99.90
23267;DHT22;11802;53.160;8.214;2023-03-22T13:53:45;12.50;99.90
23267;DHT22;11802;53.160;8.214;2023-03-22T13:56:49;12.40;99.90
23267;DHT22;11802;53.160;8.214;2023-03-22T14:02:16;12.30;99.90
23267;DHT22;11802;53.160;8.214;2023-03-22T14:04:53;12.20;99.90
23267;DHT22;11802;53.160;8.214;2023-03-22T14:07:28;12.10;99.90
23267;DHT22;11802;53.160;8.214;2023-03-22T14:10:02;12.10;99.90
23267;DHT22;11802;53.160;8.214;2023-03-22T14:12:35;12.00;99.90
23267;DHT22;11802;53.160;8.214;2023-03-22T14:15:15;12.00;99.90
23267;DHT22;11802;53.160;8.214;2023-03-22T14:17:45;12.00;99.90
23267;DHT22;11802;53.160;8.214;2023-03-22T14:20:16;12.10;99.90
23267;DHT22;11802;53.160;8.214;2023-03-22T14:22:48;12.10;99.90
23267;DHT22;11802;53.160;8.214;2023-03-22T14:25:20;12.20;99.90
23267;DHT22;11802;53.160;8.214;2023-03-22T14:27:46;12.20;99.90
23267;DHT22;11802;53.160;8.214;2023-03-22T14:32:57;12.10;99.90
23267;DHT22;11802;53.160;8.214;2023-03-22T14:35:35;12.10;99.90
23267;DHT22;11802;53.160;8.214;2023-03-22T14:38:14;12.10;99.90
23267;DHT22;11802;53.160;8.214;2023-03-22T14:40:40;12.10;99.90
23267;DHT22;11802;53.160;8.214;2023-03-22T14:45:45;12.20;99.90
23267;DHT22;11802;53.160;8.214;2023-03-22T14:48:19;12.20;99.90
23267;DHT22;11802;53.160;8.214;2023-03-22T14:50:50;12.10;99.90
23267;DHT22;11802;53.160;8.214;2023-03-22T14:53:18;12.10;99.90
23267;DHT22;11802;53.160;8.214;2023-03-22T14:55:47;12.00;99.90
23267;DHT22;11802;53.160;8.214;2023-03-22T14:58:15;12.00;99.90
23267;DHT22;11802;53.160;8.214;2023-03-22T15:00:41;12.00;99.90
23267;DHT22;11802;53.160;8.214;2023-03-22T15:03:27;11.90;99.90
23267;DHT22;11802;53.160;8.214;2023-03-22T15:05:56;11.80;99.90
23267;DHT22;11802;53.160;8.214;2023-03-22T15:08:25;11.80;99.90
23267;DHT22;11802;53.160;8.214;2023-03-22T15:10:55;11.80;99.90
23267;DHT22;11802;53.160;8.214;2023-03-22T15:13:23;11.70;99.90
23267;DHT22;11802;53.160;8.214;2023-03-22T15:15:49;11.70;99.90
23267;DHT22;11802;53.160;8.214;2023-03-22T15:18:17;11.80;99.90
23267;DHT22;11802;53.160;8.214;2023-03-22T15:20:45;11.80;99.90
23267;DHT22;11802;53.160;8.214;2023-03-22T15:23:15;11.80;99.90
23267;DHT22;11802;53.160;8.214;2023-03-22T15:25:48;11.80;99.90
23267;DHT22;11802;53.160;8.214;2023-03-22T15:28:17;11.80;99.90
23267;DHT22;11802;53.160;8.214;2023-03-22T15:30:47;11.80;99.90
23267;DHT22;11802;53.160;8.214;2023-03-22T15:33:24;11.80;99.90
23267;DHT22;11802;53.160;8.214;2023-03-22T15:35:54;11.80;99.90
23267;DHT22;11802;53.160;8.214;2023-03-22T15:38:30;11.90;99.90
23267;DHT22;11802;53.160;8.214;2023-03-22T15:41:48;11.90;99.90
23267;DHT22;11802;53.160;8.214;2023-03-22T15:43:47;11.90;99.90
23267;DHT22;11802;53.160;8.214;2023-03-22T15:46:19;12.00;99.90
23267;DHT22;11802;53.160;8.214;2023-03-22T15:48:59;12.00;99.90
23267;DHT22;11802;53.160;8.214;2023-03-22T15:51:31;12.00;99.90
23267;DHT22;11802;53.160;8.214;2023-03-22T15:54:03;12.00;99.90
23267;DHT22;11802;53.160;8.214;2023-03-22T15:56:31;12.00;99.90
23267;DHT22;11802;53.160;8.214;2023-03-22T15:58:59;12.00;99.90
23267;DHT22;11802;53.160;8.214;2023-03-22T16:01:26;12.10;99.90
23267;DHT22;11802;53.160;8.214;2023-03-22T16:06:19;12.10;99.90
23267;DHT22;11802;53.160;8.214;2023-03-22T16:08:46;12.00;99.90
23267;DHT22;11802;53.160;8.214;2023-03-22T16:11:12;12.00;99.90
23267;DHT22;11802;53.160;8.214;2023-03-22T16:13:38;12.00;99.90
23267;DHT22;11802;53.160;8.214;2023-03-22T16:16:15;11.90;99.90
23267;DHT22;11802;53.160;8.214;2023-03-22T16:18:42;11.90;99.90
23267;DHT22;11802;53.160;8.214;2023-03-22T16:21:12;11.90;99.90
23267;DHT22;11802;53.160;8.214;2023-03-22T16:23:39;11.90;99.90
23267;DHT22;11802;53.160;8.214;2023-03-22T16:26:12;11.90;99.90
23267;DHT22;11802;53.160;8.214;2023-03-22T16:28:38;11.90;99.90
23267;DHT22;11802;53.160;8.214;2023-03-22T16:31:04;11.90;99.90
23267;DHT22;11802;53.160;8.214;2023-03-22T16:33:30;11.90;99.90
23267;DHT22;11802;53.160;8.214;2023-03-22T16:35:56;11.80;99.90
23267;DHT22;11802;53.160;8.214;2023-03-22T16:38:21;11.90;99.90
23267;DHT22;11802;53.160;8.214;2023-03-22T16:40:51;11.90;99.90
23267;DHT22;11802;53.160;8.214;2023-03-22T16:43:17;11.90;99.90
23267;DHT22;11802;53.160;8.214;2023-03-22T16:45:44;11.90;99.90
23267;DHT22;11802;53.160;8.214;2023-03-22T16:48:10;11.90;99.90
23267;DHT22;11802;53.160;8.214;2023-03-22T16:50:38;11.90;99.90
23267;DHT22;11802;53.160;8.214;2023-03-22T16:53:08;11.90;99.90
23267;DHT22;11802;53.160;8.214;2023-03-22T16:55:34;11.90;99.90
23267;DHT22;11802;53.160;8.214;2023-03-22T16:58:00;11.90;99.90
23267;DHT22;11802;53.160;8.214;2023-03-22T17:00:26;11.90;99.90
23267;DHT22;11802;53.160;8.214;2023-03-22T17:02:55;11.90;99.90
23267;DHT22;11802;53.160;8.214;2023-03-22T17:05:23;11.90;99.90
23267;DHT22;11802;53.160;8.214;2023-03-22T17:07:51;11.80;99.90
23267;DHT22;11802;53.160;8.214;2023-03-22T17:10:18;11.90;99.90
23267;DHT22;11802;53.160;8.214;2023-03-22T17:12:45;11.80;99.90